createdAt,value
2023-04-16T00:02:18.214Z,9.45
2023-04-16T00:05:08.363Z,13.60
2023-04-16T00:07:57.572Z,10.88
2023-04-16T00:10:48.158Z,12.77
2023-04-16T00:13:38.269Z,14.20
2023-04-16T00:16:27.892Z,11.15
2023-04-16T00:19:17.569Z,11.43
2023-04-16T00:22:06.923Z,7.88
2023-04-16T00:24:56.211Z,14.10
2023-04-16T00:27:46.739Z,10.13
2023-04-16T00:30:36.126Z,9.93
2023-04-16T00:33:25.717Z,11.80
2023-04-16T00:36:14.864Z,9.57
2023-04-16T00:39:04.173Z,8.32
2023-04-16T00:41:53.637Z,11.85
2023-04-16T00:44:44.322Z,8.05
2023-04-16T00:47:33.818Z,9.27
2023-04-16T00:50:24.457Z,13.98
2023-04-16T00:53:14.375Z,14.50
2023-04-16T00:56:05.768Z,9.30
2023-04-16T00:58:56.984Z,12.82
2023-04-16T01:01:47.654Z,9.77
2023-04-16T01:04:37.376Z,11.05
2023-04-16T01:07:26.869Z,14.48
2023-04-16T01:10:16.074Z,12.93
2023-04-16T01:13:05.355Z,10.38
2023-04-16T01:15:54.880Z,12.98
2023-04-16T01:18:46.166Z,13.25
2023-04-16T01:21:36.919Z,10.65
2023-04-16T01:24:26.442Z,15.27
2023-04-16T01:27:15.788Z,10.57
2023-04-16T01:30:06.739Z,11.60
2023-04-16T01:33:18.169Z,11.02
2023-04-16T01:36:08.336Z,11.32
2023-04-16T01:38:58.983Z,9.00
2023-04-16T01:41:49.448Z,8.52
2023-04-16T01:44:38.613Z,11.23
2023-04-16T01:47:27.933Z,11.77
2023-04-16T01:50:17.580Z,10.38
2023-04-16T01:53:06.891Z,8.30
2023-04-16T01:55:57.534Z,8.13
2023-04-16T01:58:47.518Z,11.40
2023-04-16T02:01:38.744Z,8.40
2023-04-16T02:04:28.119Z,12.63
2023-04-16T02:07:17.483Z,10.80
2023-04-16T02:10:10.375Z,12.65
2023-04-16T02:13:03.219Z,10.05
2023-04-16T02:15:53.456Z,10.68
2023-04-16T02:18:57.637Z,12.40
2023-04-16T02:21:47.772Z,8.90
2023-04-16T02:24:37.685Z,13.40
2023-04-16T02:27:30.725Z,12.77
2023-04-16T02:30:29.980Z,13.75
2023-04-16T02:33:20.401Z,12.50
2023-04-16T02:36:19.965Z,19.45
2023-04-16T02:39:09.658Z,11.85
2023-04-16T02:41:59.539Z,10.70
2023-04-16T02:44:49.295Z,16.40
2023-04-16T02:47:40.022Z,14.48
2023-04-16T02:50:29.272Z,14.80
2023-04-16T02:53:18.831Z,14.13
2023-04-16T02:56:09.071Z,14.88
2023-04-16T02:58:58.206Z,15.23
2023-04-16T03:01:47.648Z,12.45
2023-04-16T03:04:38.504Z,21.23
2023-04-16T03:07:28.117Z,17.65
2023-04-16T03:10:17.409Z,17.80
2023-04-16T03:13:06.987Z,20.08
2023-04-16T03:15:56.303Z,18.25
2023-04-16T03:18:45.572Z,18.83
2023-04-16T03:21:36.237Z,18.05
2023-04-16T03:24:26.209Z,20.63
2023-04-16T03:27:15.818Z,20.52
2023-04-16T03:30:05.936Z,22.10
2023-04-16T03:32:56.992Z,18.90
2023-04-16T03:35:46.937Z,18.48
2023-04-16T03:38:38.386Z,19.45
2023-04-16T03:41:27.645Z,20.77
2023-04-16T03:44:17.082Z,25.73
2023-04-16T03:47:07.533Z,17.98
2023-04-16T03:49:57.463Z,21.85
2023-04-16T03:52:47.122Z,22.58
2023-04-16T03:55:38.633Z,24.85
2023-04-16T03:58:27.920Z,21.00
2023-04-16T04:01:18.964Z,22.08
2023-04-16T04:04:09.704Z,22.67
2023-04-16T04:06:59.836Z,24.38
2023-04-16T04:09:50.274Z,21.17
2023-04-16T04:12:40.873Z,15.48
2023-04-16T04:15:30.238Z,19.30
2023-04-16T04:18:19.620Z,15.98
2023-04-16T04:21:09.194Z,15.07
2023-04-16T04:23:58.634Z,20.38
2023-04-16T04:26:47.846Z,15.98
2023-04-16T04:29:38.890Z,20.38
2023-04-16T04:32:28.611Z,18.45
2023-04-16T04:35:17.901Z,16.90
2023-04-16T04:38:07.185Z,15.68
2023-04-16T04:40:57.657Z,18.63
2023-04-16T04:43:48.909Z,21.38
2023-04-16T04:46:40.935Z,18.45
2023-04-16T04:49:30.671Z,21.70
2023-04-16T04:52:20.580Z,21.13
2023-04-16T04:55:10.800Z,19.20
2023-04-16T04:58:00.161Z,20.17
2023-04-16T05:00:49.475Z,21.73
2023-04-16T05:03:40.229Z,24.08
2023-04-16T05:06:29.654Z,23.08
2023-04-16T05:09:18.856Z,23.98
2023-04-16T05:12:08.283Z,24.33
2023-04-16T05:14:57.542Z,21.98
2023-04-16T05:17:46.810Z,22.20
2023-04-16T05:20:38.103Z,19.60
2023-04-16T05:23:27.311Z,28.73
2023-04-16T05:26:16.711Z,20.92
2023-04-16T05:29:06.048Z,18.90
2023-04-16T05:31:55.410Z,21.63
2023-04-16T05:34:44.637Z,24.25
2023-04-16T05:37:35.305Z,24.25
2023-04-16T05:40:24.514Z,20.02
2023-04-16T05:43:13.811Z,20.73
2023-04-16T05:46:03.152Z,16.38
2023-04-16T05:48:52.378Z,21.75
2023-04-16T05:51:41.597Z,22.45
2023-04-16T05:54:32.263Z,18.90
2023-04-16T05:57:21.493Z,15.70
2023-04-16T06:00:11.527Z,13.43
2023-04-16T06:03:04.711Z,9.88
2023-04-16T06:05:54.132Z,8.27
2023-04-16T06:08:43.344Z,4.47
2023-04-16T06:11:36.280Z,5.80
2023-04-16T06:17:14.478Z,5.90
2023-04-16T06:20:03.860Z,15.00
2023-04-16T06:22:53.188Z,8.65
2023-04-16T06:25:42.366Z,5.93
2023-04-16T06:28:33.106Z,5.50
2023-04-16T06:31:22.517Z,7.53
2023-04-16T06:34:11.884Z,7.47
2023-04-16T06:37:01.512Z,5.47
2023-04-16T06:39:50.748Z,9.88
2023-04-16T06:42:40.040Z,11.45
2023-04-16T06:45:30.791Z,9.07
2023-04-16T06:48:20.059Z,7.40
2023-04-16T06:51:09.381Z,9.25
2023-04-16T06:53:58.723Z,7.60
2023-04-16T06:56:47.900Z,10.30
2023-04-16T06:59:37.103Z,15.63
2023-04-16T07:02:27.975Z,8.70
2023-04-16T07:05:17.380Z,10.63
2023-04-16T07:08:06.961Z,8.93
2023-04-16T07:10:56.303Z,9.73
2023-04-16T07:13:45.516Z,9.05
2023-04-16T07:16:34.825Z,6.90
2023-04-16T07:19:25.835Z,7.68
2023-04-16T07:22:15.056Z,7.70
2023-04-16T07:25:04.982Z,12.98
2023-04-16T07:27:54.217Z,7.28
2023-04-16T07:30:43.433Z,6.03
2023-04-16T07:33:32.686Z,16.88
2023-04-16T07:36:23.613Z,11.20
2023-04-16T07:39:13.353Z,13.27
2023-04-16T07:42:02.839Z,11.05
2023-04-16T07:44:52.036Z,9.90
2023-04-16T07:47:41.315Z,10.35
2023-04-16T07:50:30.602Z,9.65
2023-04-16T07:53:21.311Z,11.32
2023-04-16T07:56:10.992Z,5.78
2023-04-16T07:59:07.879Z,8.15
2023-04-16T08:02:09.104Z,11.52
2023-04-16T08:04:58.635Z,9.25
2023-04-16T08:07:47.930Z,10.65
2023-04-16T08:10:38.524Z,6.65
2023-04-16T08:13:27.740Z,9.35
2023-04-16T08:16:17.081Z,7.70
2023-04-16T08:19:06.555Z,12.35
2023-04-16T08:21:56.636Z,8.98
2023-04-16T08:24:45.838Z,7.60
2023-04-16T08:27:36.490Z,8.73
2023-04-16T08:30:25.873Z,12.02
2023-04-16T08:33:15.627Z,7.18
2023-04-16T08:36:05.836Z,7.00
2023-04-16T08:38:55.205Z,6.72
2023-04-16T08:41:48.049Z,7.35
2023-04-16T08:44:43.111Z,7.72
2023-04-16T08:47:36.551Z,8.25
2023-04-16T08:50:28.429Z,5.55
2023-04-16T08:53:24.315Z,10.45
2023-04-16T08:56:14.805Z,9.70
2023-04-16T08:59:05.829Z,6.15
2023-04-16T09:02:00.220Z,7.40
2023-04-16T09:04:52.098Z,8.07
2023-04-16T09:07:43.018Z,12.32
2023-04-16T09:10:32.598Z,6.82
2023-04-16T09:13:23.646Z,9.18
2023-04-16T09:16:14.032Z,8.80
2023-04-16T09:19:05.145Z,5.80
2023-04-16T09:21:54.577Z,10.13
2023-04-16T09:24:43.995Z,10.55
2023-04-16T09:27:33.417Z,10.75
2023-04-16T09:30:28.444Z,11.63
2023-04-16T09:33:23.044Z,7.82
2023-04-16T09:36:14.002Z,8.80
2023-04-16T09:39:04.986Z,7.90
2023-04-16T09:41:56.560Z,11.27
2023-04-16T09:44:46.310Z,11.75
2023-04-16T09:47:46.503Z,9.43
2023-04-16T09:50:35.899Z,9.85
2023-04-16T09:53:31.098Z,11.73
2023-04-16T09:56:24.887Z,13.35
2023-04-16T09:59:19.076Z,8.45
2023-04-16T10:02:15.226Z,10.70
2023-04-16T10:05:08.722Z,12.00
2023-04-16T10:08:02.450Z,13.77
2023-04-16T10:10:57.288Z,17.38
2023-04-16T10:13:46.958Z,12.52
2023-04-16T10:16:36.534Z,9.00
2023-04-16T10:19:27.048Z,13.00
2023-04-16T10:22:16.552Z,10.90
2023-04-16T10:25:07.462Z,11.85
2023-04-16T10:28:00.179Z,12.13
2023-04-16T10:30:53.783Z,8.82
2023-04-16T10:33:45.541Z,7.78
2023-04-16T10:36:40.396Z,10.75
2023-04-16T10:39:30.601Z,12.45
2023-04-16T10:42:19.998Z,13.55
2023-04-16T10:45:13.079Z,7.70
2023-04-16T10:51:00.469Z,12.95
2023-04-16T10:53:50.286Z,8.50
2023-04-16T10:56:39.907Z,10.40
2023-04-16T10:59:35.019Z,9.90
2023-04-16T11:02:30.444Z,11.68
2023-04-16T11:05:27.900Z,11.30
2023-04-16T11:08:17.663Z,10.80
2023-04-16T11:11:08.224Z,11.77
2023-04-16T11:13:58.492Z,8.93
2023-04-16T11:16:47.996Z,11.93
2023-04-16T11:19:39.464Z,10.50
2023-04-16T11:22:29.229Z,6.10
2023-04-16T11:25:22.566Z,14.85
2023-04-16T11:28:11.962Z,11.20
2023-04-16T11:31:01.415Z,12.02
2023-04-16T11:33:51.631Z,6.95
2023-04-16T11:36:51.171Z,7.65
2023-04-16T11:39:52.107Z,12.30
2023-04-16T11:42:44.375Z,9.05
2023-04-16T11:48:23.557Z,9.82
2023-04-16T11:51:12.788Z,13.35
2023-04-16T11:54:04.038Z,12.52
2023-04-16T11:56:54.641Z,13.40
2023-04-16T12:00:01.554Z,10.57
2023-04-16T12:03:04.494Z,8.85
2023-04-16T12:05:53.818Z,8.77
2023-04-16T12:08:44.188Z,11.15
2023-04-16T12:11:41.910Z,9.85
2023-04-16T12:14:31.715Z,8.65
2023-04-16T12:17:22.136Z,11.10
2023-04-16T12:20:13.030Z,11.02
2023-04-16T12:23:02.285Z,9.35
2023-04-16T12:25:52.137Z,12.88
2023-04-16T12:28:43.232Z,9.13
2023-04-16T12:31:39.311Z,11.02
2023-04-16T12:34:48.581Z,11.20
2023-04-16T12:37:38.412Z,13.40
2023-04-16T12:40:28.218Z,9.98
2023-04-16T12:43:17.503Z,9.10
2023-04-16T12:46:09.628Z,11.45
2023-04-16T12:48:59.115Z,9.60
2023-04-16T12:51:54.104Z,10.30
2023-04-16T12:54:46.551Z,10.77
2023-04-16T12:57:35.901Z,10.77
2023-04-16T13:00:25.602Z,10.30
2023-04-16T13:03:17.958Z,12.27
2023-04-16T13:06:07.554Z,10.20
2023-04-16T13:08:57.430Z,9.52
2023-04-16T13:11:46.938Z,10.07
2023-04-16T13:14:36.433Z,11.38
2023-04-16T13:17:26.085Z,8.65
2023-04-16T13:20:16.853Z,8.82
2023-04-16T13:23:06.149Z,7.10
2023-04-16T13:25:55.538Z,9.35
2023-04-16T13:28:44.791Z,7.28
2023-04-16T13:31:34.112Z,8.10
2023-04-16T13:34:23.452Z,6.55
2023-04-16T13:37:14.453Z,7.28
2023-04-16T13:40:03.866Z,5.32
2023-04-16T13:42:53.412Z,6.68
2023-04-16T13:45:42.693Z,7.05
2023-04-16T13:48:32.853Z,6.97
2023-04-16T13:51:22.193Z,6.82
2023-04-16T13:54:13.004Z,9.63
2023-04-16T13:57:02.572Z,6.85
2023-04-16T13:59:52.296Z,6.82
2023-04-16T14:02:42.346Z,7.68
2023-04-16T14:05:31.856Z,8.98
2023-04-16T14:08:22.451Z,9.25
2023-04-16T14:11:13.773Z,5.88
2023-04-16T14:14:03.108Z,6.15
2023-04-16T14:16:52.468Z,8.13
2023-04-16T14:19:42.116Z,8.52
2023-04-16T14:22:31.458Z,7.22
2023-04-16T14:25:20.868Z,7.10
2023-04-16T14:28:14.333Z,8.35
2023-04-16T14:31:05.714Z,8.00
2023-04-16T14:33:55.098Z,7.57
2023-04-16T14:36:44.620Z,8.02
2023-04-16T14:39:34.007Z,8.30
2023-04-16T14:42:23.625Z,7.63
2023-04-16T14:45:14.536Z,9.57
2023-04-16T14:48:03.868Z,9.63
2023-04-16T14:50:53.172Z,8.60
2023-04-16T14:53:45.182Z,6.72
2023-04-16T14:56:34.529Z,7.53
2023-04-16T14:59:23.794Z,7.30
2023-04-16T15:02:14.733Z,8.82
2023-04-16T15:05:04.224Z,8.90
2023-04-16T15:07:53.866Z,10.25
2023-04-16T15:10:43.448Z,8.48
2023-04-16T15:13:34.766Z,10.38
2023-04-16T15:16:24.911Z,10.85
2023-04-16T15:19:15.623Z,9.80
2023-04-16T15:22:04.883Z,8.27
2023-04-16T15:24:54.210Z,11.98
2023-04-16T15:27:43.384Z,9.35
2023-04-16T15:30:33.046Z,9.32
2023-04-16T15:33:23.087Z,12.63
2023-04-16T15:36:13.828Z,11.73
2023-04-16T15:39:03.255Z,15.23
2023-04-16T15:42:01.566Z,9.90
2023-04-16T15:44:52.133Z,10.00
2023-04-16T15:47:42.130Z,10.65
2023-04-16T15:50:31.476Z,9.70
2023-04-16T15:53:22.419Z,8.32
2023-04-16T15:56:11.819Z,12.10
2023-04-16T15:59:01.240Z,10.52
2023-04-16T16:01:50.629Z,10.32
2023-04-16T16:04:45.879Z,9.27
2023-04-16T16:07:35.573Z,14.95
2023-04-16T16:10:26.611Z,9.43
2023-04-16T16:13:18.321Z,10.73
2023-04-16T16:16:07.744Z,11.68
2023-04-16T16:18:58.229Z,10.77
2023-04-16T16:21:47.512Z,12.02
2023-04-16T16:24:36.771Z,11.43
2023-04-16T16:27:27.498Z,9.13
2023-04-16T16:30:16.754Z,9.10
2023-04-16T16:33:06.123Z,11.65
2023-04-16T16:35:55.447Z,10.63
2023-04-16T16:38:47.403Z,12.20
2023-04-16T16:41:42.019Z,12.30
2023-04-16T16:44:32.724Z,12.98
2023-04-16T16:47:22.046Z,13.95
2023-04-16T16:50:12.604Z,11.38
2023-04-16T16:53:02.128Z,11.38
2023-04-16T16:55:51.408Z,18.63
2023-04-16T16:58:40.703Z,13.75
2023-04-16T17:01:31.798Z,15.18
2023-04-16T17:04:21.204Z,15.93
2023-04-16T17:07:10.911Z,14.40
2023-04-16T17:10:03.732Z,18.10
2023-04-16T17:12:54.831Z,12.32
2023-04-16T17:15:44.182Z,17.13
2023-04-16T17:18:35.174Z,21.85
2023-04-16T17:21:24.464Z,13.32
2023-04-16T17:24:13.911Z,15.18
2023-04-16T17:27:04.377Z,16.50
2023-04-16T17:29:59.959Z,12.73
2023-04-16T17:32:49.293Z,12.75
2023-04-16T17:35:41.391Z,14.15
2023-04-16T17:38:30.810Z,15.10
2023-04-16T17:41:20.687Z,13.90
2023-04-16T17:44:11.720Z,12.82
2023-04-16T17:47:02.246Z,15.82
2023-04-16T17:49:55.310Z,13.23
2023-04-16T17:52:47.317Z,13.40
2023-04-16T17:55:37.751Z,10.43
2023-04-16T17:58:27.440Z,15.32
2023-04-16T18:01:16.684Z,16.65
2023-04-16T18:04:07.384Z,17.25
2023-04-16T18:06:56.722Z,17.15
2023-04-16T18:09:47.915Z,16.15
2023-04-16T18:12:37.271Z,12.82
2023-04-16T18:15:26.925Z,14.57
2023-04-16T18:18:16.497Z,16.98
2023-04-16T18:21:05.865Z,23.70
2023-04-16T18:23:55.097Z,19.60
2023-04-16T18:26:47.063Z,18.67
2023-04-16T18:29:38.814Z,23.37
2023-04-16T18:35:20.876Z,22.80
2023-04-16T18:38:10.353Z,24.67
2023-04-16T18:40:59.828Z,21.55
2023-04-16T18:43:51.010Z,20.52
2023-04-16T18:46:41.197Z,25.17
2023-04-16T18:49:30.480Z,27.40
2023-04-16T18:52:19.747Z,27.58
2023-04-16T18:55:10.402Z,27.75
2023-04-16T18:57:59.719Z,27.17
2023-04-16T19:00:55.085Z,25.67
2023-04-16T19:03:44.493Z,24.85
2023-04-16T19:06:33.811Z,28.55
2023-04-16T19:09:27.643Z,28.17
2023-04-16T19:12:16.866Z,26.35
2023-04-16T19:15:07.028Z,26.05
2023-04-16T19:17:57.772Z,28.08
2023-04-16T19:20:47.215Z,31.05
2023-04-16T19:23:36.599Z,28.88
2023-04-16T19:26:26.552Z,28.10
2023-04-16T19:29:18.008Z,26.08
2023-04-16T19:32:07.595Z,22.08
2023-04-16T19:34:58.280Z,21.33
2023-04-16T19:37:47.548Z,29.42
2023-04-16T19:40:36.838Z,25.38
2023-04-16T19:43:28.038Z,22.77
2023-04-16T19:46:18.990Z,20.40
2023-04-16T19:49:08.618Z,20.63
2023-04-16T19:51:59.358Z,23.45
2023-04-16T19:54:49.068Z,33.08
2023-04-16T19:57:38.622Z,23.08
2023-04-16T20:00:28.111Z,20.33
2023-04-16T20:03:17.368Z,20.15
2023-04-16T20:06:08.037Z,23.58
2023-04-16T20:08:58.755Z,24.30
2023-04-16T20:11:48.183Z,27.27
2023-04-16T20:14:37.441Z,23.50
2023-04-16T20:17:26.723Z,21.75
2023-04-16T20:20:16.266Z,23.40
2023-04-16T20:23:05.646Z,29.00
2023-04-16T20:25:56.557Z,25.33
2023-04-16T20:28:46.054Z,22.83
2023-04-16T20:31:35.333Z,24.55
2023-04-16T20:34:24.654Z,24.58
2023-04-16T20:37:13.983Z,23.73
2023-04-16T20:40:05.421Z,25.38
2023-04-16T20:42:56.594Z,26.60
2023-04-16T20:45:46.177Z,26.75
2023-04-16T20:48:35.817Z,24.90
2023-04-16T20:51:25.026Z,30.20
2023-04-16T20:54:14.242Z,25.60
2023-04-16T20:57:04.827Z,24.48
2023-04-16T20:59:55.868Z,29.05
2023-04-16T21:02:45.574Z,82.65
2023-04-16T21:05:35.122Z,70.95
2023-04-16T21:08:25.193Z,39.42
2023-04-16T21:11:14.366Z,40.97
2023-04-16T21:14:03.822Z,31.90
2023-04-16T21:16:54.914Z,33.47
2023-04-16T21:19:44.218Z,28.55
2023-04-16T21:22:33.548Z,32.90
2023-04-16T21:25:22.836Z,29.95
2023-04-16T21:28:12.199Z,32.30
2023-04-16T21:31:01.652Z,34.35
2023-04-16T21:33:52.348Z,26.90
2023-04-16T21:36:41.656Z,27.33
2023-04-16T21:39:31.189Z,30.15
2023-04-16T21:42:20.553Z,31.13
2023-04-16T21:45:11.159Z,30.63
2023-04-16T21:48:00.464Z,26.60
2023-04-16T21:50:58.195Z,45.22
2023-04-16T21:53:47.703Z,33.83
2023-04-16T21:56:36.887Z,29.13
2023-04-16T21:59:26.949Z,30.88
2023-04-16T22:02:16.807Z,31.05
2023-04-16T22:05:07.627Z,31.60
2023-04-16T22:07:58.347Z,35.55
2023-04-16T22:10:47.713Z,34.58
2023-04-16T22:13:38.400Z,34.83
2023-04-16T22:16:28.027Z,37.22
2023-04-16T22:19:18.312Z,29.60
2023-04-16T22:22:07.476Z,32.85
2023-04-16T22:24:59.328Z,35.85
2023-04-16T22:27:48.940Z,30.83
2023-04-16T22:30:38.209Z,29.33
2023-04-16T22:33:30.900Z,30.27
2023-04-16T22:36:21.084Z,27.33
2023-04-16T22:39:10.731Z,28.35
2023-04-16T22:42:02.086Z,11.90
2023-04-16T22:44:51.378Z,7.30
2023-04-16T22:47:41.769Z,6.78
2023-04-16T22:50:32.349Z,5.68
2023-04-16T22:53:21.974Z,6.97
2023-04-16T22:56:11.890Z,5.38
2023-04-16T22:59:02.453Z,5.28
2023-04-16T23:01:52.187Z,4.85
2023-04-16T23:04:41.620Z,6.32
2023-04-16T23:07:30.862Z,6.55
2023-04-16T23:10:20.150Z,6.47
2023-04-16T23:13:09.376Z,7.75
2023-04-16T23:16:00.532Z,5.05
2023-04-16T23:18:49.749Z,3.58
2023-04-16T23:21:39.028Z,8.63
2023-04-16T23:24:28.214Z,6.28
2023-04-16T23:27:17.409Z,6.55
2023-04-16T23:30:08.402Z,6.07
2023-04-16T23:32:59.108Z,5.82
2023-04-16T23:35:48.797Z,4.13
2023-04-16T23:38:38.070Z,5.07
2023-04-16T23:41:27.202Z,6.43
2023-04-16T23:44:16.523Z,5.13
2023-04-16T23:47:06.004Z,5.93
2023-04-16T23:49:56.736Z,4.82
2023-04-16T23:52:46.046Z,5.80
2023-04-16T23:55:35.334Z,4.03
2023-04-16T23:58:24.619Z,4.15
